sensor_id;sensor_type;location;lat;lon;timestamp;temperature;humidity
51579;DHT22;47998;53.242;6.386;2023-04-15T00:02:16;5.00;99.90
51579;DHT22;47998;53.242;6.386;2023-04-15T00:04:46;5.00;99.90
51579;DHT22;47998;53.242;6.386;2023-04-15T00:07:13;5.00;99.90
51579;DHT22;47998;53.242;6.386;2023-04-15T00:09:40;5.00;99.90
51579;DHT22;47998;53.242;6.386;2023-04-15T00:12:06;5.00;99.90
51579;DHT22;47998;53.242;6.386;2023-04-15T00:14:34;5.00;99.90
51579;DHT22;47998;53.242;6.386;2023-04-15T00:17:01;5.00;99.90
51579;DHT22;47998;53.242;6.386;2023-04-15T00:19:28;5.00;99.90
51579;DHT22;47998;53.242;6.386;2023-04-15T00:21:54;5.00;99.90
51579;DHT22;47998;53.242;6.386;2023-04-15T00:24:20;5.00;99.90
51579;DHT22;47998;53.242;6.386;2023-04-15T00:26:46;5.00;99.90
51579;DHT22;47998;53.242;6.386;2023-04-15T00:29:12;4.90;99.90
51579;DHT22;47998;53.242;6.386;2023-04-15T00:31:38;5.00;99.90
51579;DHT22;47998;53.242;6.386;2023-04-15T00:34:03;4.90;99.90
51579;DHT22;47998;53.242;6.386;2023-04-15T00:36:29;4.90;99.90
51579;DHT22;47998;53.242;6.386;2023-04-15T00:38:56;4.80;99.90
51579;DHT22;47998;53.242;6.386;2023-04-15T00:41:22;4.70;99.90
51579;DHT22;47998;53.242;6.386;2023-04-15T00:43:47;4.70;99.90
51579;DHT22;47998;53.242;6.386;2023-04-15T00:46:15;4.70;99.90
51579;DHT22;47998;53.242;6.386;2023-04-15T00:48:42;4.80;99.90
51579;DHT22;47998;53.242;6.386;2023-04-15T00:51:08;4.80;99.90
51579;DHT22;47998;53.242;6.386;2023-04-15T00:53:34;4.80;99.90
51579;DHT22;47998;53.242;6.386;2023-04-15T00:56:00;4.70;99.90
51579;DHT22;47998;53.242;6.386;2023-04-15T00:58:26;4.70;99.90
51579;DHT22;47998;53.242;6.386;2023-04-15T01:00:55;4.70;99.90
51579;DHT22;47998;53.242;6.386;2023-04-15T01:03:21;4.70;99.90
51579;DHT22;47998;53.242;6.386;2023-04-15T01:05:48;4.70;99.90
51579;DHT22;47998;53.242;6.386;2023-04-15T01:08:14;4.70;99.90
51579;DHT22;47998;53.242;6.386;2023-04-15T01:10:40;4.70;99.90
51579;DHT22;47998;53.242;6.386;2023-04-15T01:13:06;4.80;99.90
51579;DHT22;47998;53.242;6.386;2023-04-15T01:15:33;4.70;99.90
51579;DHT22;47998;53.242;6.386;2023-04-15T01:18:01;4.70;99.90
51579;DHT22;47998;53.242;6.386;2023-04-15T01:20:28;4.70;99.90
51579;DHT22;47998;53.242;6.386;2023-04-15T01:22:54;4.70;99.90
51579;DHT22;47998;53.242;6.386;2023-04-15T01:25:30;4.70;99.90
51579;DHT22;47998;53.242;6.386;2023-04-15T01:27:57;4.70;99.90
51579;DHT22;47998;53.242;6.386;2023-04-15T01:30:24;4.80;99.90
51579;DHT22;47998;53.242;6.386;2023-04-15T01:32:51;4.60;99.90
51579;DHT22;47998;53.242;6.386;2023-04-15T01:35:17;4.60;99.90
51579;DHT22;47998;53.242;6.386;2023-04-15T01:37:43;4.60;99.90
51579;DHT22;47998;53.242;6.386;2023-04-15T01:40:10;4.50;99.90
51579;DHT22;47998;53.242;6.386;2023-04-15T01:42:36;4.40;99.90
51579;DHT22;47998;53.242;6.386;2023-04-15T01:45:02;4.50;99.90
51579;DHT22;47998;53.242;6.386;2023-04-15T01:47:28;4.50;99.90
51579;DHT22;47998;53.242;6.386;2023-04-15T01:49:54;4.50;99.90
51579;DHT22;47998;53.242;6.386;2023-04-15T01:52:20;4.40;99.90
51579;DHT22;47998;53.242;6.386;2023-04-15T01:54:46;4.50;99.90
51579;DHT22;47998;53.242;6.386;2023-04-15T01:57:11;4.50;99.90
51579;DHT22;47998;53.242;6.386;2023-04-15T01:59:37;4.50;99.90
51579;DHT22;47998;53.242;6.386;2023-04-15T02:02:03;4.40;99.90
51579;DHT22;47998;53.242;6.386;2023-04-15T02:04:30;4.40;99.90
51579;DHT22;47998;53.242;6.386;2023-04-15T02:06:56;4.30;99.90
51579;DHT22;47998;53.242;6.386;2023-04-15T02:09:21;4.30;99.90
51579;DHT22;47998;53.242;6.386;2023-04-15T02:11:47;4.30;99.90
51579;DHT22;47998;53.242;6.386;2023-04-15T02:14:13;4.20;99.90
51579;DHT22;47998;53.242;6.386;2023-04-15T02:16:38;4.10;99.90
51579;DHT22;47998;53.242;6.386;2023-04-15T02:19:05;4.00;99.90
51579;DHT22;47998;53.242;6.386;2023-04-15T02:21:30;4.00;99.90
51579;DHT22;47998;53.242;6.386;2023-04-15T02:23:56;3.90;99.90
51579;DHT22;47998;53.242;6.386;2023-04-15T02:26:22;3.90;99.90
51579;DHT22;47998;53.242;6.386;2023-04-15T02:28:49;3.90;99.90
51579;DHT22;47998;53.242;6.386;2023-04-15T02:31:18;3.80;99.90
51579;DHT22;47998;53.242;6.386;2023-04-15T02:33:44;3.80;99.90
51579;DHT22;47998;53.242;6.386;2023-04-15T02:36:10;3.80;99.90
51579;DHT22;47998;53.242;6.386;2023-04-15T02:38:36;3.70;99.90
51579;DHT22;47998;53.242;6.386;2023-04-15T02:41:04;3.70;99.90
51579;DHT22;47998;53.242;6.386;2023-04-15T02:43:30;3.70;99.90
51579;DHT22;47998;53.242;6.386;2023-04-15T02:45:56;3.70;99.90
51579;DHT22;47998;53.242;6.386;2023-04-15T02:48:21;3.70;99.90
51579;DHT22;47998;53.242;6.386;2023-04-15T02:50:47;3.70;99.90
51579;DHT22;47998;53.242;6.386;2023-04-15T02:53:13;3.70;99.90
51579;DHT22;47998;53.242;6.386;2023-04-15T02:55:39;3.70;99.90
51579;DHT22;47998;53.242;6.386;2023-04-15T02:58:05;3.70;99.90
51579;DHT22;47998;53.242;6.386;2023-04-15T03:00:31;3.80;99.90
51579;DHT22;47998;53.242;6.386;2023-04-15T03:03:04;3.80;99.90
51579;DHT22;47998;53.242;6.386;2023-04-15T03:05:30;3.70;99.90
51579;DHT22;47998;53.242;6.386;2023-04-15T03:07:56;3.70;99.90
51579;DHT22;47998;53.242;6.386;2023-04-15T03:10:22;3.70;99.90
51579;DHT22;47998;53.242;6.386;2023-04-15T03:12:48;3.80;99.90
51579;DHT22;47998;53.242;6.386;2023-04-15T03:15:14;3.70;99.90
51579;DHT22;47998;53.242;6.386;2023-04-15T03:17:41;3.70;99.90
51579;DHT22;47998;53.242;6.386;2023-04-15T03:20:07;3.70;99.90
51579;DHT22;47998;53.242;6.386;2023-04-15T03:22:34;3.80;99.90
51579;DHT22;47998;53.242;6.386;2023-04-15T03:24:59;3.80;99.90
51579;DHT22;47998;53.242;6.386;2023-04-15T03:27:26;3.80;99.90
51579;DHT22;47998;53.242;6.386;2023-04-15T03:29:51;3.80;99.90
51579;DHT22;47998;53.242;6.386;2023-04-15T03:32:17;3.90;99.90
51579;DHT22;47998;53.242;6.386;2023-04-15T03:34:43;3.90;99.90
51579;DHT22;47998;53.242;6.386;2023-04-15T03:37:09;3.80;99.90
51579;DHT22;47998;53.242;6.386;2023-04-15T03:39:34;3.90;99.90
51579;DHT22;47998;53.242;6.386;2023-04-15T03:42:00;3.80;99.90
51579;DHT22;47998;53.242;6.386;2023-04-15T03:44:26;3.80;99.90
51579;DHT22;47998;53.242;6.386;2023-04-15T03:46:53;3.80;99.90
51579;DHT22;47998;53.242;6.386;2023-04-15T03:49:19;3.80;99.90
51579;DHT22;47998;53.242;6.386;2023-04-15T03:51:45;3.80;99.90
51579;DHT22;47998;53.242;6.386;2023-04-15T03:54:11;3.80;99.90
51579;DHT22;47998;53.242;6.386;2023-04-15T03:56:39;4.20;99.90
51579;DHT22;47998;53.242;6.386;2023-04-15T03:59:05;3.70;99.90
51579;DHT22;47998;53.242;6.386;2023-04-15T04:01:31;3.70;99.90
51579;DHT22;47998;53.242;6.386;2023-04-15T04:03:57;3.70;99.90
51579;DHT22;47998;53.242;6.386;2023-04-15T04:06:23;3.70;99.90
51579;DHT22;47998;53.242;6.386;2023-04-15T04:08:48;3.90;99.90
51579;DHT22;47998;53.242;6.386;2023-04-15T04:11:14;3.80;99.90
51579;DHT22;47998;53.242;6.386;2023-04-15T04:13:40;3.80;99.90
51579;DHT22;47998;53.242;6.386;2023-04-15T04:16:06;3.80;99.90
51579;DHT22;47998;53.242;6.386;2023-04-15T04:18:32;4.00;99.90
51579;DHT22;47998;53.242;6.386;2023-04-15T04:20:58;3.80;99.90
51579;DHT22;47998;53.242;6.386;2023-04-15T04:23:24;3.70;99.90
51579;DHT22;47998;53.242;6.386;2023-04-15T04:25:49;3.50;99.90
51579;DHT22;47998;53.242;6.386;2023-04-15T04:28:15;3.50;99.90
51579;DHT22;47998;53.242;6.386;2023-04-15T04:30:41;3.40;99.90
51579;DHT22;47998;53.242;6.386;2023-04-15T04:33:07;3.30;99.90
51579;DHT22;47998;53.242;6.386;2023-04-15T04:35:33;3.30;99.90
51579;DHT22;47998;53.242;6.386;2023-04-15T04:38:02;3.20;99.90
51579;DHT22;47998;53.242;6.386;2023-04-15T04:40:28;3.10;99.90
51579;DHT22;47998;53.242;6.386;2023-04-15T04:42:54;3.10;99.90
51579;DHT22;47998;53.242;6.386;2023-04-15T04:45:20;3.00;99.90
51579;DHT22;47998;53.242;6.386;2023-04-15T04:47:46;3.00;99.90
51579;DHT22;47998;53.242;6.386;2023-04-15T04:50:12;2.90;99.90
51579;DHT22;47998;53.242;6.386;2023-04-15T04:52:38;2.90;99.90
51579;DHT22;47998;53.242;6.386;2023-04-15T04:55:04;2.70;99.90
51579;DHT22;47998;53.242;6.386;2023-04-15T04:57:30;2.60;99.90
51579;DHT22;47998;53.242;6.386;2023-04-15T04:59:55;2.40;99.90
51579;DHT22;47998;53.242;6.386;2023-04-15T05:02:22;2.40;99.90
51579;DHT22;47998;53.242;6.386;2023-04-15T05:04:47;2.40;99.90
51579;DHT22;47998;53.242;6.386;2023-04-15T05:07:14;2.50;99.90
51579;DHT22;47998;53.242;6.386;2023-04-15T05:09:40;2.40;99.90
51579;DHT22;47998;53.242;6.386;2023-04-15T05:12:06;2.30;99.90
51579;DHT22;47998;53.242;6.386;2023-04-15T05:14:33;2.20;99.90
51579;DHT22;47998;53.242;6.386;2023-04-15T05:16:59;2.10;99.90
51579;DHT22;47998;53.242;6.386;2023-04-15T05:19:25;2.20;99.90
51579;DHT22;47998;53.242;6.386;2023-04-15T05:21:51;2.20;99.90
51579;DHT22;47998;53.242;6.386;2023-04-15T05:24:16;2.20;99.90
51579;DHT22;47998;53.242;6.386;2023-04-15T05:26:42;2.30;99.90
51579;DHT22;47998;53.242;6.386;2023-04-15T05:29:08;2.40;99.90
51579;DHT22;47998;53.242;6.386;2023-04-15T05:31:34;2.50;99.90
51579;DHT22;47998;53.242;6.386;2023-04-15T05:34:00;2.50;99.90
51579;DHT22;47998;53.242;6.386;2023-04-15T05:36:26;2.60;99.90
51579;DHT22;47998;53.242;6.386;2023-04-15T05:38:52;2.60;99.90
51579;DHT22;47998;53.242;6.386;2023-04-15T05:41:18;2.70;99.90
51579;DHT22;47998;53.242;6.386;2023-04-15T05:43:43;2.80;99.90
51579;DHT22;47998;53.242;6.386;2023-04-15T05:46:09;3.10;99.90
51579;DHT22;47998;53.242;6.386;2023-04-15T05:48:35;3.40;99.90
51579;DHT22;47998;53.242;6.386;2023-04-15T05:51:01;3.60;99.90
51579;DHT22;47998;53.242;6.386;2023-04-15T05:53:26;3.90;99.90
51579;DHT22;47998;53.242;6.386;2023-04-15T05:55:52;4.10;99.90
51579;DHT22;47998;53.242;6.386;2023-04-15T05:58:17;4.30;99.90
51579;DHT22;47998;53.242;6.386;2023-04-15T06:00:43;4.40;99.90
51579;DHT22;47998;53.242;6.386;2023-04-15T06:03:10;4.60;99.90
51579;DHT22;47998;53.242;6.386;2023-04-15T06:05:36;4.80;99.90
51579;DHT22;47998;53.242;6.386;2023-04-15T06:08:03;5.00;99.90
51579;DHT22;47998;53.242;6.386;2023-04-15T06:10:29;5.00;99.90
51579;DHT22;47998;53.242;6.386;2023-04-15T06:12:55;5.10;99.90
51579;DHT22;47998;53.242;6.386;2023-04-15T06:15:21;5.10;99.90
51579;DHT22;47998;53.242;6.386;2023-04-15T06:17:46;5.30;99.90
51579;DHT22;47998;53.242;6.386;2023-04-15T06:20:12;5.30;99.90
51579;DHT22;47998;53.242;6.386;2023-04-15T06:22:38;5.40;99.90
51579;DHT22;47998;53.242;6.386;2023-04-15T06:25:05;5.60;99.90
51579;DHT22;47998;53.242;6.386;2023-04-15T06:27:32;5.70;99.90
51579;DHT22;47998;53.242;6.386;2023-04-15T06:29:58;5.90;99.90
51579;DHT22;47998;53.242;6.386;2023-04-15T06:32:23;6.10;99.90
51579;DHT22;47998;53.242;6.386;2023-04-15T06:34:49;6.30;99.90
51579;DHT22;47998;53.242;6.386;2023-04-15T06:37:15;6.40;99.90
51579;DHT22;47998;53.242;6.386;2023-04-15T06:39:41;6.60;99.90
51579;DHT22;47998;53.242;6.386;2023-04-15T06:42:10;6.80;99.90
51579;DHT22;47998;53.242;6.386;2023-04-15T06:44:36;7.00;99.90
51579;DHT22;47998;53.242;6.386;2023-04-15T06:47:02;7.30;99.90
51579;DHT22;47998;53.242;6.386;2023-04-15T06:49:28;7.50;99.90
51579;DHT22;47998;53.242;6.386;2023-04-15T06:51:54;7.70;99.90
51579;DHT22;47998;53.242;6.386;2023-04-15T06:54:20;7.90;99.90
51579;DHT22;47998;53.242;6.386;2023-04-15T06:56:46;8.10;99.90
51579;DHT22;47998;53.242;6.386;2023-04-15T06:59:12;8.30;99.90
51579;DHT22;47998;53.242;6.386;2023-04-15T07:01:40;8.50;99.90
51579;DHT22;47998;53.242;6.386;2023-04-15T07:04:06;8.60;99.90
51579;DHT22;47998;53.242;6.386;2023-04-15T07:06:32;8.70;99.90
51579;DHT22;47998;53.242;6.386;2023-04-15T07:08:58;8.70;99.90
51579;DHT22;47998;53.242;6.386;2023-04-15T07:11:27;8.70;99.90
51579;DHT22;47998;53.242;6.386;2023-04-15T07:13:53;8.60;99.90
51579;DHT22;47998;53.242;6.386;2023-04-15T07:16:18;8.60;99.90
51579;DHT22;47998;53.242;6.386;2023-04-15T07:18:44;8.60;99.90
51579;DHT22;47998;53.242;6.386;2023-04-15T07:21:10;8.60;99.90
51579;DHT22;47998;53.242;6.386;2023-04-15T07:23:36;8.60;99.90
51579;DHT22;47998;53.242;6.386;2023-04-15T07:26:02;8.60;99.90
51579;DHT22;47998;53.242;6.386;2023-04-15T07:28:28;8.80;99.90
51579;DHT22;47998;53.242;6.386;2023-04-15T07:30:54;8.80;99.90
51579;DHT22;47998;53.242;6.386;2023-04-15T07:33:22;8.90;99.20
51579;DHT22;47998;53.242;6.386;2023-04-15T07:35:48;9.00;99.90
51579;DHT22;47998;53.242;6.386;2023-04-15T07:38:14;9.00;99.90
51579;DHT22;47998;53.242;6.386;2023-04-15T07:40:40;9.00;76.20
51579;DHT22;47998;53.242;6.386;2023-04-15T07:43:07;9.10;90.20
51579;DHT22;47998;53.242;6.386;2023-04-15T07:45:33;9.20;38.60
51579;DHT22;47998;53.242;6.386;2023-04-15T07:48:03;9.20;30.10
51579;DHT22;47998;53.242;6.386;2023-04-15T07:50:28;9.20;7.10
51579;DHT22;47998;53.242;6.386;2023-04-15T07:52:54;9.30;24.10
51579;DHT22;47998;53.242;6.386;2023-04-15T07:55:20;9.30;1.00
51579;DHT22;47998;53.242;6.386;2023-04-15T07:57:48;9.20;1.00
51579;DHT22;47998;53.242;6.386;2023-04-15T08:00:14;9.20;1.00
51579;DHT22;47998;53.242;6.386;2023-04-15T08:02:41;9.10;1.00
51579;DHT22;47998;53.242;6.386;2023-04-15T08:05:13;9.00;1.00
51579;DHT22;47998;53.242;6.386;2023-04-15T08:07:39;9.10;1.00
51579;DHT22;47998;53.242;6.386;2023-04-15T08:10:05;9.10;1.00
51579;DHT22;47998;53.242;6.386;2023-04-15T08:12:31;9.00;1.00
51579;DHT22;47998;53.242;6.386;2023-04-15T08:14:57;9.00;1.00
51579;DHT22;47998;53.242;6.386;2023-04-15T08:17:23;9.00;99.90
51579;DHT22;47998;53.242;6.386;2023-04-15T08:19:49;8.90;1.00
51579;DHT22;47998;53.242;6.386;2023-04-15T08:22:15;8.80;1.00
51579;DHT22;47998;53.242;6.386;2023-04-15T08:24:41;8.70;1.00
51579;DHT22;47998;53.242;6.386;2023-04-15T08:27:07;8.70;1.00
51579;DHT22;47998;53.242;6.386;2023-04-15T08:29:33;8.80;1.00
51579;DHT22;47998;53.242;6.386;2023-04-15T08:31:59;8.80;99.90
51579;DHT22;47998;53.242;6.386;2023-04-15T08:34:28;8.80;99.90
51579;DHT22;47998;53.242;6.386;2023-04-15T08:36:54;8.80;99.90
51579;DHT22;47998;53.242;6.386;2023-04-15T08:39:20;8.80;99.90
51579;DHT22;47998;53.242;6.386;2023-04-15T08:41:48;8.90;99.90
51579;DHT22;47998;53.242;6.386;2023-04-15T08:44:16;9.00;99.90
51579;DHT22;47998;53.242;6.386;2023-04-15T08:46:43;9.30;99.90
51579;DHT22;47998;53.242;6.386;2023-04-15T08:49:10;9.50;99.90
51579;DHT22;47998;53.242;6.386;2023-04-15T08:51:40;9.60;64.10
51579;DHT22;47998;53.242;6.386;2023-04-15T08:54:07;9.60;1.00
51579;DHT22;47998;53.242;6.386;2023-04-15T08:56:33;9.50;1.00
51579;DHT22;47998;53.242;6.386;2023-04-15T08:59:00;9.40;1.00
51579;DHT22;47998;53.242;6.386;2023-04-15T09:01:26;9.20;1.00
51579;DHT22;47998;53.242;6.386;2023-04-15T09:03:52;9.20;47.70
51579;DHT22;47998;53.242;6.386;2023-04-15T09:06:22;9.10;91.40
51579;DHT22;47998;53.242;6.386;2023-04-15T09:08:49;9.00;83.10
51579;DHT22;47998;53.242;6.386;2023-04-15T09:11:15;8.90;99.90
51579;DHT22;47998;53.242;6.386;2023-04-15T09:13:42;8.90;99.90
51579;DHT22;47998;53.242;6.386;2023-04-15T09:16:09;9.00;99.90
51579;DHT22;47998;53.242;6.386;2023-04-15T09:18:36;9.00;99.90
51579;DHT22;47998;53.242;6.386;2023-04-15T09:21:09;9.10;99.90
51579;DHT22;47998;53.242;6.386;2023-04-15T09:23:40;9.20;99.90
51579;DHT22;47998;53.242;6.386;2023-04-15T09:26:06;9.30;56.70
51579;DHT22;47998;53.242;6.386;2023-04-15T09:28:32;9.60;1.00
51579;DHT22;47998;53.242;6.386;2023-04-15T09:33:28;10.90;99.90
51579;DHT22;47998;53.242;6.386;2023-04-15T09:35:58;11.30;1.00
51579;DHT22;47998;53.242;6.386;2023-04-15T09:38:24;11.20;1.00
51579;DHT22;47998;53.242;6.386;2023-04-15T09:40:50;11.00;99.90
51579;DHT22;47998;53.242;6.386;2023-04-15T09:43:16;10.70;1.00
51579;DHT22;47998;53.242;6.386;2023-04-15T09:45:52;10.50;1.00
51579;DHT22;47998;53.242;6.386;2023-04-15T09:48:23;10.20;1.00
51579;DHT22;47998;53.242;6.386;2023-04-15T09:50:51;10.30;1.00
51579;DHT22;47998;53.242;6.386;2023-04-15T09:53:23;10.30;1.00
51579;DHT22;47998;53.242;6.386;2023-04-15T09:55:57;10.30;1.00
51579;DHT22;47998;53.242;6.386;2023-04-15T09:58:25;10.40;1.00
51579;DHT22;47998;53.242;6.386;2023-04-15T10:00:53;10.40;1.00
51579;DHT22;47998;53.242;6.386;2023-04-15T10:03:22;10.50;99.90
51579;DHT22;47998;53.242;6.386;2023-04-15T10:05:49;10.60;1.00
51579;DHT22;47998;53.242;6.386;2023-04-15T10:08:21;10.80;1.00
51579;DHT22;47998;53.242;6.386;2023-04-15T10:10:48;10.80;1.00
51579;DHT22;47998;53.242;6.386;2023-04-15T10:13:17;10.60;1.00
51579;DHT22;47998;53.242;6.386;2023-04-15T10:15:55;10.40;99.90
51579;DHT22;47998;53.242;6.386;2023-04-15T10:18:24;10.40;1.00
51579;DHT22;47998;53.242;6.386;2023-04-15T10:20:50;10.30;1.00
51579;DHT22;47998;53.242;6.386;2023-04-15T10:23:17;10.30;1.00
51579;DHT22;47998;53.242;6.386;2023-04-15T10:25:45;10.40;1.00
51579;DHT22;47998;53.242;6.386;2023-04-15T10:28:11;10.40;99.90
51579;DHT22;47998;53.242;6.386;2023-04-15T10:30:37;10.30;1.00
51579;DHT22;47998;53.242;6.386;2023-04-15T10:33:04;10.30;99.90
51579;DHT22;47998;53.242;6.386;2023-04-15T10:35:31;10.30;1.00
51579;DHT22;47998;53.242;6.386;2023-04-15T10:37:58;10.20;1.00
51579;DHT22;47998;53.242;6.386;2023-04-15T10:40:26;10.20;1.00
51579;DHT22;47998;53.242;6.386;2023-04-15T10:42:56;10.10;1.00
51579;DHT22;47998;53.242;6.386;2023-04-15T10:45:25;10.10;1.00
51579;DHT22;47998;53.242;6.386;2023-04-15T10:47:55;10.00;1.00
51579;DHT22;47998;53.242;6.386;2023-04-15T10:50:21;10.10;28.70
51579;DHT22;47998;53.242;6.386;2023-04-15T10:52:50;10.00;1.00
51579;DHT22;47998;53.242;6.386;2023-04-15T10:55:22;10.00;1.00
51579;DHT22;47998;53.242;6.386;2023-04-15T10:57:58;10.10;40.30
51579;DHT22;47998;53.242;6.386;2023-04-15T11:00:29;10.30;99.90
51579;DHT22;47998;53.242;6.386;2023-04-15T11:02:57;10.40;98.50
51579;DHT22;47998;53.242;6.386;2023-04-15T11:08:04;10.40;1.00
51579;DHT22;47998;53.242;6.386;2023-04-15T11:13:03;10.20;1.00
51579;DHT22;47998;53.242;6.386;2023-04-15T11:15:37;10.10;89.30
51579;DHT22;47998;53.242;6.386;2023-04-15T11:18:11;10.10;99.90
51579;DHT22;47998;53.242;6.386;2023-04-15T11:20:39;10.00;99.90
51579;DHT22;47998;53.242;6.386;2023-04-15T11:23:05;9.90;99.90
51579;DHT22;47998;53.242;6.386;2023-04-15T11:25:32;9.70;99.90
51579;DHT22;47998;53.242;6.386;2023-04-15T11:28:00;9.90;99.90
51579;DHT22;47998;53.242;6.386;2023-04-15T11:30:27;10.10;99.90
51579;DHT22;47998;53.242;6.386;2023-04-15T11:32:57;10.20;1.00
51579;DHT22;47998;53.242;6.386;2023-04-15T11:35:23;10.10;1.00
51579;DHT22;47998;53.242;6.386;2023-04-15T11:37:49;10.00;9.90
51579;DHT22;47998;53.242;6.386;2023-04-15T11:40:16;9.90;82.80
51579;DHT22;47998;53.242;6.386;2023-04-15T11:42:43;10.00;99.90
51579;DHT22;47998;53.242;6.386;2023-04-15T11:45:13;10.20;82.90
51579;DHT22;47998;53.242;6.386;2023-04-15T11:47:42;10.20;1.00
51579;DHT22;47998;53.242;6.386;2023-04-15T11:50:15;10.20;1.00
51579;DHT22;47998;53.242;6.386;2023-04-15T11:52:58;10.40;1.00
51579;DHT22;47998;53.242;6.386;2023-04-15T11:55:25;10.40;1.00
51579;DHT22;47998;53.242;6.386;2023-04-15T12:00:38;10.40;38.10
51579;DHT22;47998;53.242;6.386;2023-04-15T12:11:43;9.90;1.00
51579;DHT22;47998;53.242;6.386;2023-04-15T12:16:47;10.00;99.90
51579;DHT22;47998;53.242;6.386;2023-04-15T12:19:15;9.90;99.90
51579;DHT22;47998;53.242;6.386;2023-04-15T12:21:45;9.80;99.90
51579;DHT22;47998;53.242;6.386;2023-04-15T12:24:12;9.90;99.90
51579;DHT22;47998;53.242;6.386;2023-04-15T12:26:45;9.80;99.90
51579;DHT22;47998;53.242;6.386;2023-04-15T12:29:12;9.90;99.90
51579;DHT22;47998;53.242;6.386;2023-04-15T12:31:52;9.90;99.90
51579;DHT22;47998;53.242;6.386;2023-04-15T12:34:32;9.90;99.90
51579;DHT22;47998;53.242;6.386;2023-04-15T12:36:59;9.80;99.90
51579;DHT22;47998;53.242;6.386;2023-04-15T12:39:27;9.90;99.90
51579;DHT22;47998;53.242;6.386;2023-04-15T12:41:54;9.90;99.90
51579;DHT22;47998;53.242;6.386;2023-04-15T12:44:22;9.90;99.90
51579;DHT22;47998;53.242;6.386;2023-04-15T12:46:49;10.00;99.90
51579;DHT22;47998;53.242;6.386;2023-04-15T12:49:15;10.10;99.90
51579;DHT22;47998;53.242;6.386;2023-04-15T12:51:43;10.00;99.90
51579;DHT22;47998;53.242;6.386;2023-04-15T12:54:10;10.00;99.90
51579;DHT22;47998;53.242;6.386;2023-04-15T12:56:35;10.20;99.90
51579;DHT22;47998;53.242;6.386;2023-04-15T12:59:01;10.20;99.90
51579;DHT22;47998;53.242;6.386;2023-04-15T13:01:27;10.20;99.90
51579;DHT22;47998;53.242;6.386;2023-04-15T13:03:53;10.20;99.90
51579;DHT22;47998;53.242;6.386;2023-04-15T13:06:18;10.10;1.00
51579;DHT22;47998;53.242;6.386;2023-04-15T13:08:44;10.10;1.00
51579;DHT22;47998;53.242;6.386;2023-04-15T13:11:10;10.30;1.00
51579;DHT22;47998;53.242;6.386;2023-04-15T13:13:36;10.30;1.00
51579;DHT22;47998;53.242;6.386;2023-04-15T13:16:02;10.30;1.00
51579;DHT22;47998;53.242;6.386;2023-04-15T13:18:28;10.30;1.00
51579;DHT22;47998;53.242;6.386;2023-04-15T13:20:55;10.50;1.00
51579;DHT22;47998;53.242;6.386;2023-04-15T13:23:21;10.40;1.00
51579;DHT22;47998;53.242;6.386;2023-04-15T13:25:47;10.30;1.00
51579;DHT22;47998;53.242;6.386;2023-04-15T13:28:12;10.20;1.00
51579;DHT22;47998;53.242;6.386;2023-04-15T13:30:38;10.10;1.00
51579;DHT22;47998;53.242;6.386;2023-04-15T13:33:05;9.90;1.00
51579;DHT22;47998;53.242;6.386;2023-04-15T13:35:34;9.70;1.00
51579;DHT22;47998;53.242;6.386;2023-04-15T13:38:00;9.60;99.20
51579;DHT22;47998;53.242;6.386;2023-04-15T13:40:26;9.60;71.70
51579;DHT22;47998;53.242;6.386;2023-04-15T13:42:52;9.60;93.70
51579;DHT22;47998;53.242;6.386;2023-04-15T13:45:18;9.70;99.90
51579;DHT22;47998;53.242;6.386;2023-04-15T13:47:44;9.70;99.90
51579;DHT22;47998;53.242;6.386;2023-04-15T13:50:09;9.60;99.90
51579;DHT22;47998;53.242;6.386;2023-04-15T13:52:35;9.40;99.90
51579;DHT22;47998;53.242;6.386;2023-04-15T13:55:02;9.30;99.90
51579;DHT22;47998;53.242;6.386;2023-04-15T13:57:28;9.30;99.90
51579;DHT22;47998;53.242;6.386;2023-04-15T13:59:54;9.20;99.90
51579;DHT22;47998;53.242;6.386;2023-04-15T14:02:20;9.10;1.00
51579;DHT22;47998;53.242;6.386;2023-04-15T14:04:47;9.10;1.00
51579;DHT22;47998;53.242;6.386;2023-04-15T14:07:13;8.90;1.00
51579;DHT22;47998;53.242;6.386;2023-04-15T14:09:38;8.90;1.00
51579;DHT22;47998;53.242;6.386;2023-04-15T14:12:04;8.90;1.00
51579;DHT22;47998;53.242;6.386;2023-04-15T14:14:30;8.90;1.00
51579;DHT22;47998;53.242;6.386;2023-04-15T14:16:56;8.80;1.00
51579;DHT22;47998;53.242;6.386;2023-04-15T14:19:23;8.70;1.00
51579;DHT22;47998;53.242;6.386;2023-04-15T14:21:49;8.60;1.00
51579;DHT22;47998;53.242;6.386;2023-04-15T14:24:14;8.60;52.30
51579;DHT22;47998;53.242;6.386;2023-04-15T14:26:42;8.60;37.00
51579;DHT22;47998;53.242;6.386;2023-04-15T14:29:08;8.60;79.10
51579;DHT22;47998;53.242;6.386;2023-04-15T14:31:34;8.60;64.00
51579;DHT22;47998;53.242;6.386;2023-04-15T14:33:59;8.60;98.00
51579;DHT22;47998;53.242;6.386;2023-04-15T14:36:25;8.60;99.90
51579;DHT22;47998;53.242;6.386;2023-04-15T14:38:51;8.60;99.90
51579;DHT22;47998;53.242;6.386;2023-04-15T14:41:17;8.60;99.70
51579;DHT22;47998;53.242;6.386;2023-04-15T14:43:43;8.60;99.90
51579;DHT22;47998;53.242;6.386;2023-04-15T14:46:09;8.50;99.90
51579;DHT22;47998;53.242;6.386;2023-04-15T14:48:35;8.50;99.90
51579;DHT22;47998;53.242;6.386;2023-04-15T14:51:01;8.60;99.90
51579;DHT22;47998;53.242;6.386;2023-04-15T14:53:27;8.60;99.90
51579;DHT22;47998;53.242;6.386;2023-04-15T14:55:52;8.60;99.90
51579;DHT22;47998;53.242;6.386;2023-04-15T14:58:18;8.60;99.90
51579;DHT22;47998;53.242;6.386;2023-04-15T15:00:44;8.60;99.90
51579;DHT22;47998;53.242;6.386;2023-04-15T15:03:11;8.60;99.90
51579;DHT22;47998;53.242;6.386;2023-04-15T15:05:38;8.60;99.90
51579;DHT22;47998;53.242;6.386;2023-04-15T15:08:05;8.50;99.90
51579;DHT22;47998;53.242;6.386;2023-04-15T15:10:32;8.40;99.90
51579;DHT22;47998;53.242;6.386;2023-04-15T15:12:58;8.30;99.90
51579;DHT22;47998;53.242;6.386;2023-04-15T15:15:24;8.30;99.90
51579;DHT22;47998;53.242;6.386;2023-04-15T15:17:50;8.20;99.90
51579;DHT22;47998;53.242;6.386;2023-04-15T15:20:16;8.20;99.90
51579;DHT22;47998;53.242;6.386;2023-04-15T15:22:42;8.10;99.90
51579;DHT22;47998;53.242;6.386;2023-04-15T15:25:08;8.10;99.90
51579;DHT22;47998;53.242;6.386;2023-04-15T15:27:33;8.10;99.90
51579;DHT22;47998;53.242;6.386;2023-04-15T15:29:59;8.00;99.90
51579;DHT22;47998;53.242;6.386;2023-04-15T15:32:25;8.00;99.90
51579;DHT22;47998;53.242;6.386;2023-04-15T15:34:50;8.00;99.90
51579;DHT22;47998;53.242;6.386;2023-04-15T15:37:17;8.00;99.90
51579;DHT22;47998;53.242;6.386;2023-04-15T15:39:42;8.00;99.90
51579;DHT22;47998;53.242;6.386;2023-04-15T15:42:08;8.00;99.90
51579;DHT22;47998;53.242;6.386;2023-04-15T15:44:34;7.90;99.90
51579;DHT22;47998;53.242;6.386;2023-04-15T15:47:03;8.00;99.90
51579;DHT22;47998;53.242;6.386;2023-04-15T15:49:29;7.90;99.90
51579;DHT22;47998;53.242;6.386;2023-04-15T15:51:55;7.90;99.90
51579;DHT22;47998;53.242;6.386;2023-04-15T15:54:21;7.90;99.90
51579;DHT22;47998;53.242;6.386;2023-04-15T15:56:47;7.90;99.90
51579;DHT22;47998;53.242;6.386;2023-04-15T15:59:12;7.90;99.90
51579;DHT22;47998;53.242;6.386;2023-04-15T16:01:38;7.90;99.90
51579;DHT22;47998;53.242;6.386;2023-04-15T16:04:04;7.80;99.90
51579;DHT22;47998;53.242;6.386;2023-04-15T16:06:30;7.80;99.90